createdAt,value
2019-01-19T00:00:39.596Z,11.90
2019-01-19T00:03:18.866Z,11.93
2019-01-19T00:06:11.752Z,12.70
2019-01-19T00:08:40.813Z,12.63
2019-01-19T00:11:44.701Z,12.25
2019-01-19T00:14:14.610Z,12.13
2019-01-19T00:17:09.184Z,12.43
2019-01-19T00:20:02.427Z,12.00
2019-01-19T00:22:35.286Z,12.20
2019-01-19T00:25:08.643Z,12.10
2019-01-19T00:27:45.298Z,12.20
2019-01-19T00:30:27.021Z,12.85
2019-01-19T00:33:03.543Z,12.25
2019-01-19T00:35:57.038Z,12.43
2019-01-19T00:38:39.130Z,11.57
2019-01-19T00:41:28.524Z,12.18
2019-01-19T00:43:59.263Z,11.80
2019-01-19T00:46:38.811Z,10.95
2019-01-19T00:49:09.390Z,13.13
2019-01-19T00:51:42.923Z,11.68
2019-01-19T00:54:22.229Z,12.65
2019-01-19T00:57:09.946Z,12.45
2019-01-19T00:59:41.113Z,11.50
2019-01-19T01:02:17.045Z,11.57
2019-01-19T01:04:49.993Z,11.68
2019-01-19T01:07:33.361Z,11.57
2019-01-19T01:10:29.439Z,12.30
2019-01-19T01:13:18.353Z,12.43
2019-01-19T01:16:04.358Z,12.20
2019-01-19T01:18:53.063Z,11.53
2019-01-19T01:21:32.559Z,12.20
2019-01-19T01:24:08.714Z,12.20
2019-01-19T01:27:01.753Z,12.18
2019-01-19T01:29:44.681Z,12.88
2019-01-19T01:32:25.950Z,13.03
2019-01-19T01:34:58.960Z,13.80
2019-01-19T01:37:47.520Z,13.48
2019-01-19T01:40:20.788Z,12.88
2019-01-19T01:42:53.863Z,13.38
2019-01-19T01:45:24.085Z,13.25
2019-01-19T01:47:57.273Z,13.85
2019-01-19T01:50:33.363Z,14.80
2019-01-19T01:53:12.891Z,15.05
2019-01-19T01:55:39.282Z,14.15
2019-01-19T01:58:09.682Z,14.30
2019-01-19T02:00:46.379Z,14.50
2019-01-19T02:03:39.355Z,13.80
2019-01-19T02:06:22.519Z,14.28
2019-01-19T02:09:17.630Z,13.62
2019-01-19T02:12:05.263Z,14.05
2019-01-19T02:14:35.525Z,15.83
2019-01-19T02:17:05.896Z,14.80
2019-01-19T02:19:42.071Z,14.05
2019-01-19T02:22:32.907Z,13.93
2019-01-19T02:25:15.230Z,12.93
2019-01-19T02:27:48.961Z,13.72
2019-01-19T02:30:35.805Z,14.18
2019-01-19T02:33:21.343Z,13.58
2019-01-19T02:36:15.558Z,12.47
2019-01-19T02:38:48.537Z,12.95
2019-01-19T02:41:45.956Z,13.55
2019-01-19T02:44:16.090Z,13.30
2019-01-19T02:47:10.511Z,13.03
2019-01-19T02:49:47.921Z,13.28
2019-01-19T02:52:33.785Z,13.55
2019-01-19T02:55:30.255Z,11.83
2019-01-19T02:58:22.240Z,13.13
2019-01-19T03:00:53.679Z,13.28
2019-01-19T03:03:27.081Z,13.30
2019-01-19T03:06:00.857Z,12.55
2019-01-19T03:08:31.052Z,11.85
2019-01-19T03:11:10.310Z,11.85
2019-01-19T03:13:56.425Z,11.93
2019-01-19T03:16:43.663Z,12.33
2019-01-19T03:19:19.885Z,12.23
2019-01-19T03:21:56.108Z,12.50
2019-01-19T03:24:32.120Z,12.73
2019-01-19T03:27:02.351Z,12.00
2019-01-19T03:29:38.833Z,13.48
2019-01-19T03:32:14.665Z,14.73
2019-01-19T03:34:47.735Z,13.13
2019-01-19T03:37:18.351Z,11.63
2019-01-19T03:40:03.660Z,12.50
2019-01-19T03:42:33.880Z,12.80
2019-01-19T03:45:16.107Z,12.78
2019-01-19T03:47:55.178Z,13.55
2019-01-19T03:50:26.272Z,11.95
2019-01-19T03:53:02.408Z,12.82
2019-01-19T03:55:49.528Z,12.98
2019-01-19T03:58:22.596Z,12.70
2019-01-19T04:00:55.865Z,13.05
2019-01-19T04:03:40.876Z,13.62
2019-01-19T04:06:16.741Z,12.82
2019-01-19T04:09:13.314Z,14.13
2019-01-19T04:11:49.466Z,12.47
2019-01-19T04:14:26.084Z,12.85
2019-01-19T04:17:26.957Z,13.95
2019-01-19T04:20:15.627Z,12.68
2019-01-19T04:22:42.071Z,14.35
2019-01-19T04:25:15.135Z,14.75
2019-01-19T04:27:41.879Z,14.13
2019-01-19T04:30:10.413Z,13.48
2019-01-19T04:32:36.811Z,13.40
2019-01-19T04:35:04.103Z,13.22
2019-01-19T04:37:30.570Z,13.88
2019-01-19T04:39:57.133Z,13.88
2019-01-19T04:42:23.861Z,14.05
2019-01-19T04:44:50.142Z,14.33
2019-01-19T04:47:16.662Z,13.32
2019-01-19T04:49:43.337Z,13.35
2019-01-19T04:52:10.081Z,14.23
2019-01-19T04:54:36.984Z,14.50
2019-01-19T04:57:03.664Z,15.72
2019-01-19T04:59:30.217Z,14.58
2019-01-19T05:01:57.995Z,14.10
2019-01-19T05:04:24.607Z,14.45
2019-01-19T05:06:51.126Z,14.75
2019-01-19T05:09:17.493Z,15.35
2019-01-19T05:11:44.018Z,15.55
2019-01-19T05:14:11.164Z,15.10
2019-01-19T05:16:37.567Z,15.70
2019-01-19T05:19:04.655Z,16.48
2019-01-19T05:21:31.250Z,15.93
2019-01-19T05:23:57.771Z,15.60
2019-01-19T05:26:24.144Z,17.23
2019-01-19T05:28:50.649Z,16.97
2019-01-19T05:31:17.117Z,15.95
2019-01-19T05:33:43.639Z,17.62
2019-01-19T05:36:10.014Z,17.48
2019-01-19T05:38:36.325Z,17.65
2019-01-19T05:41:03.000Z,17.00
2019-01-19T05:43:29.662Z,18.45
2019-01-19T05:45:56.217Z,17.65
2019-01-19T05:48:22.745Z,17.27
2019-01-19T05:50:49.382Z,18.57
2019-01-19T05:53:16.043Z,18.10
2019-01-19T05:55:42.886Z,19.30
2019-01-19T05:58:09.572Z,19.55
2019-01-19T06:00:36.459Z,18.52
2019-01-19T06:03:03.400Z,19.98
2019-01-19T06:05:29.891Z,18.67
2019-01-19T06:07:59.956Z,18.67
2019-01-19T06:10:26.816Z,20.15
2019-01-19T06:12:53.303Z,20.80
2019-01-19T06:15:20.072Z,19.62
2019-01-19T06:17:46.510Z,20.43
2019-01-19T06:20:16.005Z,21.15
2019-01-19T06:22:42.872Z,19.85
2019-01-19T06:25:11.912Z,20.30
2019-01-19T06:27:38.381Z,21.10
2019-01-19T06:30:17.148Z,22.05
2019-01-19T06:32:43.813Z,21.90
2019-01-19T06:35:11.116Z,21.02
2019-01-19T06:37:37.679Z,20.95
2019-01-19T06:40:07.858Z,21.80
2019-01-19T06:42:35.748Z,22.35
2019-01-19T06:45:03.645Z,22.55
2019-01-19T06:47:30.735Z,22.30
2019-01-19T06:49:57.904Z,22.22
2019-01-19T06:52:24.360Z,24.25
2019-01-19T06:54:50.747Z,23.75
2019-01-19T06:57:17.035Z,22.77
2019-01-19T06:59:43.832Z,21.37
2019-01-19T07:02:10.328Z,22.37
2019-01-19T07:04:36.912Z,24.15
2019-01-19T07:07:03.429Z,22.37
2019-01-19T07:09:29.847Z,22.85
2019-01-19T07:11:56.706Z,22.42
2019-01-19T07:14:26.812Z,22.27
2019-01-19T07:16:53.117Z,23.50
2019-01-19T07:19:19.806Z,23.00
2019-01-19T07:21:46.234Z,22.42
2019-01-19T07:24:12.679Z,23.47
2019-01-19T07:26:39.303Z,23.10
2019-01-19T07:29:05.850Z,21.15
2019-01-19T07:31:32.708Z,22.80
2019-01-19T07:33:59.396Z,23.00
2019-01-19T07:36:26.089Z,23.75
2019-01-19T07:38:55.749Z,23.77
2019-01-19T07:41:22.046Z,21.82
2019-01-19T07:43:48.527Z,24.20
2019-01-19T07:46:15.722Z,24.15
2019-01-19T07:48:42.126Z,23.90
2019-01-19T07:51:09.047Z,23.10
2019-01-19T07:53:35.317Z,23.55
2019-01-19T07:56:01.701Z,23.52
2019-01-19T07:58:28.284Z,24.07
2019-01-19T08:00:54.769Z,25.15
2019-01-19T08:03:21.082Z,24.80
2019-01-19T08:05:47.540Z,25.48
2019-01-19T08:08:13.970Z,25.02
2019-01-19T08:10:40.622Z,25.08
2019-01-19T08:13:07.817Z,23.20
2019-01-19T08:15:34.263Z,25.05
2019-01-19T08:18:01.236Z,23.73
2019-01-19T08:20:29.666Z,24.50
2019-01-19T08:22:56.191Z,24.60
2019-01-19T08:25:22.732Z,25.25
2019-01-19T08:27:49.409Z,25.02
2019-01-19T08:30:22.013Z,25.77
2019-01-19T08:32:48.760Z,25.20
2019-01-19T08:35:17.351Z,25.50
2019-01-19T08:37:47.234Z,25.60
2019-01-19T08:40:23.247Z,24.40
2019-01-19T08:42:51.453Z,25.40
2019-01-19T08:45:19.279Z,24.55
2019-01-19T08:47:45.871Z,26.75
2019-01-19T08:50:13.572Z,25.37
2019-01-19T08:52:40.067Z,24.45
2019-01-19T08:55:07.977Z,23.18
2019-01-19T08:57:35.579Z,23.87
2019-01-19T09:00:08.630Z,22.95
2019-01-19T09:02:35.499Z,23.27
2019-01-19T09:05:02.200Z,22.67
2019-01-19T09:07:33.678Z,24.47
2019-01-19T09:09:57.826Z,23.12
2019-01-19T09:12:24.260Z,22.87
2019-01-19T09:14:50.673Z,23.85
2019-01-19T09:17:17.249Z,22.15
2019-01-19T09:19:43.752Z,22.40
2019-01-19T09:22:10.990Z,21.52
2019-01-19T09:24:37.941Z,24.98
2019-01-19T09:27:04.928Z,22.62
2019-01-19T09:29:37.664Z,23.52
2019-01-19T09:32:05.785Z,23.62
2019-01-19T09:34:34.013Z,24.55
2019-01-19T09:37:00.815Z,22.22
2019-01-19T09:39:27.402Z,23.45
2019-01-19T09:41:53.870Z,24.12
2019-01-19T09:44:27.464Z,25.17
2019-01-19T09:46:54.446Z,23.70
2019-01-19T09:49:20.823Z,25.52
2019-01-19T09:51:47.480Z,24.50
2019-01-19T09:54:14.133Z,24.95
2019-01-19T09:56:40.528Z,25.25
2019-01-19T09:59:07.070Z,24.27
2019-01-19T10:01:33.674Z,24.25
2019-01-19T10:04:00.328Z,24.25
2019-01-19T10:06:27.160Z,23.55
2019-01-19T10:08:53.492Z,21.00
2019-01-19T10:11:20.141Z,21.80
2019-01-19T10:13:46.745Z,23.45
2019-01-19T10:16:13.317Z,23.38
2019-01-19T10:18:40.045Z,24.18
2019-01-19T10:21:07.038Z,24.72
2019-01-19T10:23:33.607Z,24.55
2019-01-19T10:26:00.211Z,24.45
2019-01-19T10:28:26.667Z,24.77
2019-01-19T10:30:53.662Z,24.32
2019-01-19T10:33:20.405Z,23.92
2019-01-19T10:35:52.527Z,25.80
2019-01-19T10:38:19.128Z,26.55
2019-01-19T10:40:46.258Z,25.50
2019-01-19T10:43:13.304Z,26.17
2019-01-19T10:45:39.841Z,26.17
2019-01-19T10:48:06.733Z,23.73
2019-01-19T10:50:33.754Z,26.85
2019-01-19T10:53:00.294Z,24.85
2019-01-19T10:55:27.404Z,25.48
2019-01-19T10:57:53.899Z,25.45
2019-01-19T11:00:31.769Z,24.70
2019-01-19T11:02:59.568Z,24.05
2019-01-19T11:05:26.150Z,24.45
2019-01-19T11:07:53.346Z,23.75
2019-01-19T11:10:22.014Z,24.35
2019-01-19T11:12:49.861Z,26.02
2019-01-19T11:15:17.240Z,23.00
2019-01-19T11:17:44.307Z,26.40
2019-01-19T11:20:14.883Z,25.55
2019-01-19T11:22:41.274Z,23.35
2019-01-19T11:25:10.064Z,25.30
2019-01-19T11:27:36.496Z,23.80
2019-01-19T11:30:23.094Z,23.75
2019-01-19T11:32:49.871Z,24.75
2019-01-19T11:35:16.820Z,24.25
2019-01-19T11:37:43.142Z,23.67
2019-01-19T11:40:12.940Z,24.45
2019-01-19T11:42:39.390Z,21.77
2019-01-19T11:45:09.630Z,22.93
2019-01-19T11:47:36.100Z,21.97
2019-01-19T11:50:05.083Z,23.73
2019-01-19T11:52:31.764Z,22.73
2019-01-19T11:54:58.624Z,21.62
2019-01-19T11:57:27.804Z,20.75
2019-01-19T11:59:54.399Z,20.43
2019-01-19T12:02:21.313Z,22.90
2019-01-19T12:04:47.774Z,21.70
2019-01-19T12:07:14.358Z,22.20
2019-01-19T12:09:41.212Z,21.40
2019-01-19T12:12:08.278Z,21.87
2019-01-19T12:14:34.989Z,22.45
2019-01-19T12:17:01.501Z,20.27
2019-01-19T12:19:27.904Z,19.15
2019-01-19T12:21:54.741Z,19.23
2019-01-19T12:24:21.023Z,20.40
2019-01-19T12:26:47.906Z,20.23
2019-01-19T12:29:17.805Z,18.62
2019-01-19T12:31:44.656Z,19.25
2019-01-19T12:34:11.476Z,19.67
2019-01-19T12:36:38.085Z,19.27
2019-01-19T12:39:13.282Z,18.35
2019-01-19T12:41:39.833Z,19.23
2019-01-19T12:44:06.482Z,19.40
2019-01-19T12:46:32.778Z,18.00
2019-01-19T12:48:59.397Z,16.17
2019-01-19T12:51:26.055Z,17.98
2019-01-19T12:53:52.620Z,18.05
2019-01-19T12:56:18.977Z,17.55
2019-01-19T12:58:45.832Z,16.62
2019-01-19T13:01:12.297Z,18.30
2019-01-19T13:03:38.993Z,17.32
2019-01-19T13:06:24.611Z,17.10
2019-01-19T13:08:50.892Z,16.67
2019-01-19T13:11:27.492Z,16.07
2019-01-19T13:13:54.136Z,16.17
2019-01-19T13:16:35.697Z,15.60
2019-01-19T13:19:18.211Z,16.57
2019-01-19T13:22:11.471Z,16.30
2019-01-19T13:24:47.647Z,15.65
2019-01-19T13:27:18.021Z,15.25
2019-01-19T13:30:06.247Z,16.55
2019-01-19T13:32:45.152Z,16.73
2019-01-19T13:35:35.468Z,14.40
2019-01-19T13:38:23.303Z,15.93
2019-01-19T13:41:01.697Z,16.97
2019-01-19T13:43:57.054Z,16.60
2019-01-19T13:46:55.493Z,21.12
2019-01-19T13:49:48.962Z,19.67
2019-01-19T13:52:19.505Z,18.45
2019-01-19T13:54:49.713Z,14.20
2019-01-19T13:57:27.461Z,15.03
2019-01-19T14:00:21.726Z,14.15
2019-01-19T14:03:13.084Z,14.95
2019-01-19T14:06:03.147Z,15.00
2019-01-19T14:08:49.339Z,14.90
2019-01-19T14:11:37.849Z,15.53
2019-01-19T14:14:14.661Z,16.80
2019-01-19T14:17:01.842Z,15.93
2019-01-19T14:19:37.999Z,16.50
2019-01-19T14:22:17.290Z,17.35
2019-01-19T14:25:02.532Z,17.05
2019-01-19T14:28:01.620Z,18.90
2019-01-19T14:30:41.133Z,15.50
2019-01-19T14:33:17.219Z,15.75
2019-01-19T14:35:53.351Z,16.40
2019-01-19T14:38:23.711Z,16.20
2019-01-19T14:40:59.641Z,18.35
2019-01-19T14:43:35.739Z,17.02
2019-01-19T14:46:24.375Z,18.70
2019-01-19T14:49:06.546Z,18.40
2019-01-19T14:51:43.241Z,18.70
2019-01-19T14:54:19.307Z,19.87
2019-01-19T14:56:49.456Z,18.30
2019-01-19T14:59:28.872Z,16.70
2019-01-19T15:02:26.652Z,18.15
2019-01-19T15:04:56.940Z,19.17
2019-01-19T15:07:33.050Z,18.15
2019-01-19T15:10:21.395Z,17.57
2019-01-19T15:13:03.661Z,18.62
2019-01-19T15:15:46.397Z,16.35
2019-01-19T15:18:35.575Z,16.15
2019-01-19T15:21:18.419Z,15.23
2019-01-19T15:23:48.497Z,16.82
2019-01-19T15:26:43.538Z,16.07
2019-01-19T15:29:22.615Z,16.12
2019-01-19T15:32:11.079Z,15.58
2019-01-19T15:35:14.978Z,15.00
2019-01-19T15:38:03.732Z,15.55
2019-01-19T15:40:46.117Z,13.53
2019-01-19T15:43:20.051Z,14.45
2019-01-19T15:46:06.043Z,16.85
2019-01-19T15:48:48.756Z,15.72
2019-01-19T15:51:24.809Z,15.38
2019-01-19T15:54:19.408Z,14.78
2019-01-19T15:57:13.124Z,15.60
2019-01-19T16:00:00.477Z,15.85
2019-01-19T16:02:39.971Z,17.65
2019-01-19T16:05:13.112Z,17.92
2019-01-19T16:08:01.898Z,17.30
2019-01-19T16:10:44.134Z,16.25
2019-01-19T16:13:17.457Z,17.85
2019-01-19T16:16:12.068Z,17.67
2019-01-19T16:18:46.105Z,15.13
2019-01-19T16:21:22.803Z,16.97
2019-01-19T16:24:14.531Z,16.85
2019-01-19T16:27:05.797Z,17.60
2019-01-19T16:29:42.046Z,17.57
2019-01-19T16:32:15.234Z,16.67
2019-01-19T16:35:00.671Z,18.17
2019-01-19T16:37:33.773Z,18.25
2019-01-19T16:40:23.276Z,17.73
2019-01-19T16:42:59.421Z,18.80
2019-01-19T16:45:38.408Z,18.32
2019-01-19T16:48:28.564Z,18.73
2019-01-19T16:51:19.137Z,18.77
2019-01-19T16:54:01.509Z,19.10
2019-01-19T16:56:55.649Z,17.00
2019-01-19T16:59:28.652Z,18.15
2019-01-19T17:02:11.076Z,17.75
2019-01-19T17:05:03.398Z,17.52
2019-01-19T17:07:56.987Z,16.97
2019-01-19T17:10:42.167Z,16.50
2019-01-19T17:13:42.361Z,17.17
2019-01-19T17:16:16.270Z,15.98
2019-01-19T17:18:56.005Z,15.53
2019-01-19T17:21:55.552Z,16.93
2019-01-19T17:24:31.889Z,15.80
2019-01-19T17:27:11.879Z,15.68
2019-01-19T17:29:50.806Z,16.35
2019-01-19T17:32:24.808Z,15.30
2019-01-19T17:35:11.651Z,15.05
2019-01-19T17:37:44.732Z,15.18
2019-01-19T17:40:20.818Z,16.27
2019-01-19T17:42:59.761Z,16.67
2019-01-19T17:45:48.572Z,15.78
2019-01-19T17:48:38.327Z,14.90
2019-01-19T17:51:37.582Z,16.30
2019-01-19T17:54:33.580Z,16.32
2019-01-19T17:57:34.594Z,17.82
2019-01-19T18:00:13.398Z,17.60
2019-01-19T18:02:49.482Z,16.65
2019-01-19T18:05:19.767Z,15.65
2019-01-19T18:08:01.966Z,16.60
2019-01-19T18:11:04.474Z,16.93
2019-01-19T18:13:43.603Z,17.70
2019-01-19T18:16:22.732Z,17.07
2019-01-19T18:18:55.604Z,18.07
2019-01-19T18:21:31.475Z,17.48
2019-01-19T18:24:16.882Z,18.42
2019-01-19T18:26:55.706Z,16.82
2019-01-19T18:29:57.286Z,18.55
2019-01-19T18:32:36.851Z,17.50
2019-01-19T18:35:22.221Z,16.25
2019-01-19T18:38:10.597Z,17.40
2019-01-19T18:40:56.194Z,17.45
2019-01-19T18:43:43.454Z,17.92
2019-01-19T18:46:13.592Z,17.75
2019-01-19T18:48:46.627Z,18.15
2019-01-19T18:51:37.072Z,18.60
2019-01-19T18:54:26.191Z,18.32
2019-01-19T18:56:56.763Z,17.77
2019-01-19T18:59:32.582Z,16.27
2019-01-19T19:02:21.259Z,17.45
2019-01-19T19:05:18.875Z,17.65
2019-01-19T19:07:52.234Z,19.35
2019-01-19T19:10:40.693Z,18.30
2019-01-19T19:13:23.254Z,17.55
2019-01-19T19:16:05.144Z,17.60
2019-01-19T19:18:44.718Z,17.32
2019-01-19T19:21:23.804Z,17.07
2019-01-19T19:23:56.693Z,16.17
2019-01-19T19:27:00.813Z,19.40
2019-01-19T19:30:00.189Z,18.30
2019-01-19T19:32:40.101Z,17.82
2019-01-19T19:35:26.940Z,19.07
2019-01-19T19:38:00.805Z,18.62
2019-01-19T19:40:43.699Z,21.45
2019-01-19T19:43:14.547Z,20.40
2019-01-19T19:45:51.215Z,20.80
2019-01-19T19:48:29.943Z,20.15
2019-01-19T19:51:18.571Z,20.35
2019-01-19T19:53:48.054Z,20.27
2019-01-19T19:56:14.611Z,20.45
2019-01-19T19:58:41.368Z,19.35
2019-01-19T20:01:08.253Z,19.05
2019-01-19T20:03:34.822Z,18.12
2019-01-19T20:06:01.483Z,19.32
2019-01-19T20:08:27.813Z,18.30
2019-01-19T20:10:54.850Z,19.92
2019-01-19T20:13:21.313Z,19.52
2019-01-19T20:15:47.743Z,18.87
2019-01-19T20:18:14.210Z,20.40
2019-01-19T20:20:46.668Z,20.65
2019-01-19T20:23:13.123Z,20.30
2019-01-19T20:25:39.554Z,21.02
2019-01-19T20:28:06.122Z,21.25
2019-01-19T20:30:32.568Z,22.42
2019-01-19T20:32:59.264Z,21.35
2019-01-19T20:35:25.969Z,20.77
2019-01-19T20:37:52.343Z,20.68
2019-01-19T20:40:24.321Z,20.10
2019-01-19T20:42:49.391Z,20.05
2019-01-19T20:45:16.492Z,20.15
2019-01-19T20:47:43.259Z,19.27
2019-01-19T20:50:11.223Z,19.67
2019-01-19T20:52:37.815Z,19.70
2019-01-19T20:55:07.550Z,19.57
2019-01-19T20:57:34.570Z,20.35
2019-01-19T21:00:14.672Z,18.62
2019-01-19T21:02:41.616Z,18.40
2019-01-19T21:05:08.438Z,19.70
2019-01-19T21:07:34.895Z,19.05
2019-01-19T21:10:06.167Z,21.10
2019-01-19T21:12:32.909Z,19.98
2019-01-19T21:14:59.680Z,19.57
2019-01-19T21:17:26.570Z,19.65
2019-01-19T21:19:53.164Z,20.02
2019-01-19T21:22:19.678Z,18.92
2019-01-19T21:24:45.979Z,18.23
2019-01-19T21:27:12.528Z,19.52
2019-01-19T21:29:39.595Z,20.80
2019-01-19T21:32:06.347Z,19.25
2019-01-19T21:34:34.003Z,19.30
2019-01-19T21:37:02.098Z,17.60
2019-01-19T21:39:31.631Z,19.15
2019-01-19T21:41:58.151Z,20.57
2019-01-19T21:44:27.756Z,20.32
2019-01-19T21:46:54.666Z,19.50
2019-01-19T21:49:21.652Z,18.10
2019-01-19T21:51:48.356Z,20.10
2019-01-19T21:54:14.872Z,20.30
2019-01-19T21:56:41.472Z,18.90
2019-01-19T21:59:08.482Z,18.95
2019-01-19T22:01:34.991Z,20.72
2019-01-19T22:04:01.896Z,20.50
2019-01-19T22:06:28.223Z,19.57
2019-01-19T22:08:54.868Z,19.92
2019-01-19T22:11:21.372Z,19.23
2019-01-19T22:13:48.086Z,19.42
2019-01-19T22:16:14.529Z,30.25
2019-01-19T22:18:41.066Z,32.83
2019-01-19T22:21:08.353Z,30.48
2019-01-19T22:23:35.036Z,24.15
2019-01-19T22:26:01.625Z,20.88
2019-01-19T22:28:28.040Z,21.50
2019-01-19T22:30:54.415Z,19.35
2019-01-19T22:33:21.850Z,20.27
2019-01-19T22:35:48.433Z,20.20
2019-01-19T22:38:14.869Z,21.48
2019-01-19T22:40:44.427Z,19.95
2019-01-19T22:43:11.004Z,21.05
2019-01-19T22:45:37.562Z,21.20
2019-01-19T22:48:04.410Z,21.55
2019-01-19T22:50:30.827Z,20.17
2019-01-19T22:52:57.250Z,22.15
2019-01-19T22:55:23.796Z,20.12
2019-01-19T22:57:50.220Z,20.20
2019-01-19T23:00:31.402Z,22.02
2019-01-19T23:02:57.864Z,22.15
2019-01-19T23:05:26.232Z,21.20
2019-01-19T23:07:52.572Z,20.35
2019-01-19T23:10:19.916Z,21.57
2019-01-19T23:12:46.830Z,21.80
2019-01-19T23:15:14.631Z,23.30
2019-01-19T23:17:40.944Z,22.80
2019-01-19T23:20:09.583Z,20.88
2019-01-19T23:22:36.703Z,21.80
2019-01-19T23:25:04.853Z,21.70
2019-01-19T23:27:32.110Z,22.15
2019-01-19T23:29:58.835Z,22.10
2019-01-19T23:32:25.181Z,20.97
2019-01-19T23:34:51.626Z,22.17
2019-01-19T23:37:18.074Z,22.10
2019-01-19T23:39:45.000Z,22.75
2019-01-19T23:42:11.442Z,21.48
2019-01-19T23:44:40.525Z,22.52
2019-01-19T23:47:07.118Z,21.90
2019-01-19T23:49:33.603Z,22.25
2019-01-19T23:52:01.888Z,21.05
2019-01-19T23:54:28.160Z,21.80
2019-01-19T23:56:54.660Z,21.62
2019-01-19T23:59:21.595Z,21.85
